createdAt,value
2018-12-05T00:01:05.432Z,1.81
2018-12-05T00:03:33.732Z,1.82
2018-12-05T00:06:02.095Z,1.79
2018-12-05T00:08:30.423Z,1.78
2018-12-05T00:10:58.747Z,1.75
2018-12-05T00:13:27.057Z,1.73
2018-12-05T00:15:55.561Z,1.73
2018-12-05T00:18:23.879Z,1.70
2018-12-05T00:20:52.178Z,1.68
2018-12-05T00:23:20.636Z,1.64
2018-12-05T00:25:48.937Z,1.62
2018-12-05T00:28:17.260Z,1.62
2018-12-05T00:30:45.578Z,1.61
2018-12-05T00:33:13.882Z,1.61
2018-12-05T00:35:42.171Z,1.63
2018-12-05T00:38:10.667Z,1.63
2018-12-05T00:40:38.988Z,1.61
2018-12-05T00:43:07.306Z,1.62
2018-12-05T00:45:35.746Z,1.63
2018-12-05T00:48:04.113Z,1.64
2018-12-05T00:50:32.494Z,1.63
2018-12-05T00:53:00.984Z,1.67
2018-12-05T00:55:29.298Z,1.67
2018-12-05T00:57:57.608Z,1.66
2018-12-05T01:00:25.996Z,1.66
2018-12-05T01:02:54.295Z,1.65
2018-12-05T01:05:22.622Z,1.66
2018-12-05T01:07:51.019Z,1.65
2018-12-05T01:10:20.179Z,1.66
2018-12-05T01:12:48.499Z,1.65
2018-12-05T01:15:16.983Z,1.63
2018-12-05T01:17:45.363Z,1.63
2018-12-05T01:20:14.006Z,1.63
2018-12-05T01:22:42.367Z,1.62
2018-12-05T01:25:10.815Z,1.63
2018-12-05T01:27:39.168Z,1.65
2018-12-05T01:30:07.756Z,1.65
2018-12-05T01:32:36.067Z,1.64
2018-12-05T01:35:04.623Z,1.64
2018-12-05T01:37:33.123Z,1.63
2018-12-05T01:40:01.434Z,1.61
2018-12-05T01:42:29.996Z,1.59
2018-12-05T01:44:58.333Z,1.59
2018-12-05T01:47:26.702Z,1.55
2018-12-05T01:49:55.092Z,1.54
2018-12-05T01:52:23.584Z,1.52
2018-12-05T01:54:51.896Z,1.50
2018-12-05T01:57:20.200Z,1.53
2018-12-05T01:59:48.547Z,1.52
2018-12-05T02:02:16.872Z,1.50
2018-12-05T02:04:45.187Z,1.48
2018-12-05T02:07:13.777Z,1.48
2018-12-05T02:09:44.044Z,1.47
2018-12-05T02:12:12.368Z,1.49
2018-12-05T02:14:40.956Z,1.50
2018-12-05T02:17:09.269Z,1.48
2018-12-05T02:19:37.584Z,1.47
2018-12-05T02:22:06.213Z,1.45
2018-12-05T02:24:34.537Z,1.46
2018-12-05T02:27:02.848Z,1.46
2018-12-05T02:29:36.815Z,1.46
2018-12-05T02:32:05.135Z,1.45
2018-12-05T02:34:33.544Z,1.45
2018-12-05T02:37:01.892Z,1.45
2018-12-05T02:39:30.226Z,1.43
2018-12-05T02:41:58.532Z,1.45
2018-12-05T02:44:26.858Z,1.47
2018-12-05T02:46:55.241Z,1.45
2018-12-05T02:49:23.602Z,1.47
2018-12-05T02:51:51.924Z,1.50
2018-12-05T02:54:20.318Z,1.47
2018-12-05T02:56:48.621Z,1.48
2018-12-05T02:59:16.977Z,1.46
2018-12-05T03:01:45.280Z,1.46
2018-12-05T03:04:13.599Z,1.47
2018-12-05T03:06:41.998Z,1.47
2018-12-05T03:09:10.397Z,1.47
2018-12-05T03:11:38.771Z,1.45
2018-12-05T03:14:07.092Z,1.41
2018-12-05T03:16:35.428Z,1.41
2018-12-05T03:19:03.839Z,1.39
2018-12-05T03:21:32.183Z,1.36
2018-12-05T03:24:00.497Z,1.33
2018-12-05T03:26:28.866Z,1.29
2018-12-05T03:28:57.239Z,1.29
2018-12-05T03:31:25.522Z,1.33
2018-12-05T03:33:53.851Z,1.33
2018-12-05T03:36:22.260Z,1.32
2018-12-05T03:38:50.631Z,1.29
2018-12-05T03:41:19.019Z,1.27
2018-12-05T03:43:47.319Z,1.27
2018-12-05T03:46:15.638Z,1.28
2018-12-05T03:48:43.947Z,1.27
2018-12-05T03:51:12.269Z,1.26
2018-12-05T03:53:40.580Z,1.23
2018-12-05T03:56:08.923Z,1.21
2018-12-05T03:58:37.234Z,1.16
2018-12-05T04:01:05.545Z,1.14
2018-12-05T04:03:33.846Z,1.16
2018-12-05T04:06:02.224Z,1.17
2018-12-05T04:08:30.530Z,1.16
2018-12-05T04:10:59.050Z,1.11
2018-12-05T04:13:27.344Z,1.09
2018-12-05T04:15:55.675Z,1.09
2018-12-05T04:18:23.963Z,1.09
2018-12-05T04:20:52.275Z,1.09
2018-12-05T04:23:20.575Z,1.09
2018-12-05T04:25:48.895Z,1.09
2018-12-05T04:28:17.398Z,1.06
2018-12-05T04:30:45.704Z,1.04
2018-12-05T04:33:14.011Z,1.04
2018-12-05T04:35:42.327Z,1.03
2018-12-05T04:38:10.634Z,1.03
2018-12-05T04:40:38.961Z,1.04
2018-12-05T04:43:07.261Z,1.03
2018-12-05T04:45:35.575Z,1.03
2018-12-05T04:48:03.934Z,1.01
2018-12-05T04:50:32.251Z,0.99
2018-12-05T04:53:00.559Z,0.99
2018-12-05T04:55:28.878Z,0.99
2018-12-05T04:57:57.203Z,0.99
2018-12-05T05:00:25.490Z,0.99
2018-12-05T05:02:53.815Z,0.98
2018-12-05T05:05:22.119Z,0.94
2018-12-05T05:07:50.439Z,0.91
2018-12-05T05:10:18.995Z,0.91
2018-12-05T05:12:47.512Z,0.92
2018-12-05T05:15:15.815Z,0.90
2018-12-05T05:17:44.158Z,0.91
2018-12-05T05:20:12.466Z,0.87
2018-12-05T05:22:40.783Z,0.84
2018-12-05T05:25:09.091Z,0.81
2018-12-05T05:27:37.400Z,0.78
2018-12-05T05:30:06.346Z,0.74
2018-12-05T05:32:34.663Z,0.70
2018-12-05T05:35:02.962Z,0.67
2018-12-05T05:37:31.284Z,0.65
2018-12-05T05:39:59.578Z,0.65
2018-12-05T05:42:27.894Z,0.64
2018-12-05T05:44:56.194Z,0.61
2018-12-05T05:47:24.519Z,0.62
2018-12-05T05:49:52.814Z,0.65
2018-12-05T05:52:21.147Z,0.68
2018-12-05T05:54:49.441Z,0.69
2018-12-05T05:57:17.756Z,0.68
2018-12-05T05:59:46.055Z,0.69
2018-12-05T06:02:14.417Z,0.68
2018-12-05T06:04:42.718Z,0.65
2018-12-05T06:07:11.070Z,0.63
2018-12-05T06:09:39.369Z,0.65
2018-12-05T06:12:07.692Z,0.64
2018-12-05T06:14:35.984Z,0.64
2018-12-05T06:17:04.364Z,0.62
2018-12-05T06:19:32.710Z,0.58
2018-12-05T06:22:01.069Z,0.55
2018-12-05T06:24:30.841Z,0.53
2018-12-05T06:26:59.316Z,0.53
2018-12-05T06:29:27.648Z,0.53
2018-12-05T06:31:56.022Z,0.55
2018-12-05T06:34:24.350Z,0.56
2018-12-05T06:36:52.692Z,0.57
2018-12-05T06:39:21.019Z,0.56
2018-12-05T06:41:49.330Z,0.57
2018-12-05T06:44:17.666Z,0.53
2018-12-05T06:46:45.971Z,0.51
2018-12-05T06:49:14.284Z,0.52
2018-12-05T06:51:42.596Z,0.55
2018-12-05T06:54:10.916Z,0.55
2018-12-05T06:56:39.474Z,0.54
2018-12-05T06:59:07.790Z,0.53
2018-12-05T07:01:36.098Z,0.53
2018-12-05T07:04:04.564Z,0.53
2018-12-05T07:06:32.858Z,0.53
2018-12-05T07:09:01.190Z,0.53
2018-12-05T07:11:29.525Z,0.55
2018-12-05T07:13:57.838Z,0.59
2018-12-05T07:16:26.139Z,0.61
2018-12-05T07:18:54.507Z,0.66
2018-12-05T07:21:22.823Z,0.71
2018-12-05T07:23:51.151Z,0.74
2018-12-05T07:26:19.524Z,0.78
2018-12-05T07:28:47.842Z,0.84
2018-12-05T07:31:16.248Z,0.89
2018-12-05T07:33:44.575Z,0.96
2018-12-05T07:36:12.891Z,1.02
2018-12-05T07:38:41.189Z,1.14
2018-12-05T07:41:09.510Z,1.54
2018-12-05T07:43:37.874Z,2.10
2018-12-05T07:46:06.261Z,2.70
2018-12-05T07:48:34.562Z,3.32
2018-12-05T07:51:02.962Z,3.94
2018-12-05T07:53:31.347Z,4.58
2018-12-05T07:55:59.663Z,5.22
2018-12-05T07:58:27.953Z,5.86
2018-12-05T08:00:56.271Z,6.41
2018-12-05T08:03:24.572Z,6.91
2018-12-05T08:05:53.034Z,7.36
2018-12-05T08:08:21.312Z,7.75
2018-12-05T08:10:49.609Z,8.18
2018-12-05T08:13:18.047Z,8.63
2018-12-05T08:15:46.422Z,9.05
2018-12-05T08:18:14.718Z,9.47
2018-12-05T08:20:43.043Z,9.84
2018-12-05T08:23:11.350Z,10.17
2018-12-05T08:25:40.843Z,10.49
2018-12-05T08:28:09.469Z,10.77
2018-12-05T08:30:37.784Z,11.04
2018-12-05T08:33:06.180Z,11.20
2018-12-05T08:35:34.513Z,11.45
2018-12-05T08:38:02.962Z,11.66
2018-12-05T08:40:31.275Z,11.93
2018-12-05T08:42:59.592Z,12.16
2018-12-05T08:45:27.966Z,12.39
2018-12-05T08:47:56.270Z,12.63
2018-12-05T08:50:24.850Z,12.85
2018-12-05T08:52:53.174Z,13.05
2018-12-05T08:55:21.478Z,13.22
2018-12-05T08:57:49.808Z,13.35
2018-12-05T09:00:18.129Z,13.51
2018-12-05T09:02:46.462Z,13.67
2018-12-05T09:05:14.818Z,13.80
2018-12-05T09:07:43.191Z,13.87
2018-12-05T09:10:11.571Z,13.92
2018-12-05T09:12:39.959Z,14.03
2018-12-05T09:15:08.340Z,14.18
2018-12-05T09:17:36.708Z,14.28
2018-12-05T09:20:06.407Z,14.41
2018-12-05T09:22:40.996Z,14.48
2018-12-05T09:25:05.465Z,14.46
2018-12-05T09:27:33.915Z,14.54
2018-12-05T09:30:02.214Z,14.61
2018-12-05T09:32:30.563Z,14.67
2018-12-05T09:34:58.894Z,14.71
2018-12-05T09:37:27.197Z,14.72
2018-12-05T09:39:55.524Z,14.70
2018-12-05T09:42:23.838Z,14.65
2018-12-05T09:44:52.137Z,14.56
2018-12-05T09:47:20.459Z,14.44
2018-12-05T09:49:48.754Z,14.44
2018-12-05T09:52:17.086Z,14.42
2018-12-05T09:54:45.402Z,14.32
2018-12-05T09:57:13.818Z,14.21
2018-12-05T09:59:42.222Z,14.06
2018-12-05T10:02:10.518Z,13.94
2018-12-05T10:04:38.838Z,13.89
2018-12-05T10:07:07.163Z,13.76
2018-12-05T10:09:35.463Z,13.61
2018-12-05T10:12:03.784Z,13.46
2018-12-05T10:14:32.102Z,13.28
2018-12-05T10:17:00.471Z,13.05
2018-12-05T10:19:28.765Z,12.82
2018-12-05T10:21:57.146Z,12.56
2018-12-05T10:24:25.470Z,12.29
2018-12-05T10:26:53.846Z,12.03
2018-12-05T10:29:22.151Z,11.76
2018-12-05T10:31:50.526Z,11.51
2018-12-05T10:34:18.886Z,11.30
2018-12-05T10:36:47.222Z,11.12
2018-12-05T10:39:15.542Z,10.93
2018-12-05T10:41:43.869Z,10.70
2018-12-05T10:44:12.171Z,10.46
2018-12-05T10:46:40.484Z,10.21
2018-12-05T10:49:08.843Z,10.02
2018-12-05T10:51:37.158Z,9.85
2018-12-05T10:54:05.526Z,9.71
2018-12-05T10:56:33.835Z,9.56
2018-12-05T10:59:02.145Z,9.43
2018-12-05T11:01:36.098Z,9.37
2018-12-05T11:07:05.923Z,9.03
2018-12-05T11:09:39.928Z,8.81
2018-12-05T11:12:13.838Z,8.61
2018-12-05T11:14:47.667Z,8.38
2018-12-05T11:23:34.923Z,7.63
2018-12-05T11:26:07.030Z,7.45
2018-12-05T11:28:35.330Z,7.29
2018-12-05T11:31:03.683Z,7.16
2018-12-05T11:33:32.066Z,7.04
2018-12-05T11:36:00.490Z,6.96
2018-12-05T11:38:28.823Z,6.88
2018-12-05T11:40:57.222Z,6.82
2018-12-05T11:43:25.542Z,6.79
2018-12-05T11:45:53.895Z,6.76
2018-12-05T11:48:22.218Z,6.74
2018-12-05T11:50:50.535Z,6.71
2018-12-05T11:53:18.842Z,6.69
2018-12-05T11:55:47.214Z,6.70
2018-12-05T11:58:15.530Z,6.66
2018-12-05T12:00:43.889Z,6.67
2018-12-05T12:03:12.205Z,6.65
2018-12-05T12:05:40.511Z,6.64
2018-12-05T12:08:08.820Z,6.63
2018-12-05T12:10:40.461Z,6.60
2018-12-05T12:13:09.794Z,6.59
2018-12-05T12:15:38.176Z,6.58
2018-12-05T12:18:06.594Z,6.59
2018-12-05T12:20:35.015Z,6.61
2018-12-05T12:23:03.554Z,6.59
2018-12-05T12:25:31.969Z,6.56
2018-12-05T12:28:00.279Z,6.55
2018-12-05T12:30:28.606Z,6.56
2018-12-05T12:32:56.911Z,6.54
2018-12-05T12:35:25.222Z,6.52
2018-12-05T12:37:53.575Z,6.51
2018-12-05T12:40:21.941Z,6.49
2018-12-05T12:42:50.263Z,6.43
2018-12-05T12:45:20.075Z,6.38
2018-12-05T12:47:48.594Z,6.33
2018-12-05T12:50:16.912Z,6.28
2018-12-05T12:52:45.230Z,6.24
2018-12-05T12:55:13.551Z,6.17
2018-12-05T12:57:41.854Z,6.08
2018-12-05T13:00:10.240Z,6.00
2018-12-05T13:02:38.554Z,5.95
2018-12-05T13:05:06.978Z,5.90
2018-12-05T13:07:35.274Z,5.85
2018-12-05T13:10:04.946Z,5.81
2018-12-05T13:12:34.059Z,5.77
2018-12-05T13:15:02.410Z,5.74
2018-12-05T13:17:30.716Z,5.70
2018-12-05T13:19:59.040Z,5.63
2018-12-05T13:22:27.357Z,5.61
2018-12-05T13:24:55.671Z,5.55
2018-12-05T13:27:23.998Z,5.52
2018-12-05T13:29:52.298Z,5.49
2018-12-05T13:32:20.617Z,5.47
2018-12-05T13:34:48.923Z,5.41
2018-12-05T13:37:17.238Z,5.35
2018-12-05T13:39:45.614Z,5.28
2018-12-05T13:42:13.946Z,5.25
2018-12-05T13:44:42.249Z,5.21
2018-12-05T13:47:10.566Z,5.18
2018-12-05T13:49:38.990Z,5.16
2018-12-05T13:52:07.326Z,5.12
2018-12-05T13:54:35.625Z,5.10
2018-12-05T13:57:04.043Z,5.09
2018-12-05T13:59:32.361Z,5.02
2018-12-05T14:02:00.678Z,4.98
2018-12-05T14:04:29.070Z,4.95
2018-12-05T14:06:57.422Z,4.92
2018-12-05T14:09:25.882Z,4.89
2018-12-05T14:11:54.254Z,4.83
2018-12-05T14:14:22.554Z,4.78
2018-12-05T14:16:50.870Z,4.72
2018-12-05T14:19:19.171Z,4.65
2018-12-05T14:25:19.152Z,4.53
2018-12-05T14:27:47.478Z,4.50
2018-12-05T14:30:15.837Z,4.47
2018-12-05T14:32:44.199Z,4.42
2018-12-05T14:35:12.519Z,4.36
2018-12-05T14:37:40.836Z,4.30
2018-12-05T14:40:09.133Z,4.22
2018-12-05T14:42:37.462Z,4.15
2018-12-05T14:45:06.086Z,4.10
2018-12-05T14:47:34.414Z,4.05
2018-12-05T14:50:02.772Z,3.99
2018-12-05T14:52:31.091Z,3.92
2018-12-05T14:54:59.406Z,3.86
2018-12-05T14:57:27.873Z,3.79
2018-12-05T14:59:56.171Z,3.73
2018-12-05T15:02:24.488Z,3.68
2018-12-05T15:04:52.816Z,3.63
2018-12-05T15:07:21.218Z,3.55
2018-12-05T15:09:49.589Z,3.49
2018-12-05T15:12:17.907Z,3.43
2018-12-05T15:14:46.212Z,3.36
2018-12-05T15:17:14.510Z,3.34
2018-12-05T15:19:42.839Z,3.31
2018-12-05T15:22:11.243Z,3.29
2018-12-05T15:24:39.569Z,3.26
2018-12-05T15:27:07.885Z,3.21
2018-12-05T15:29:36.207Z,3.16
2018-12-05T15:32:04.602Z,3.12
2018-12-05T15:34:32.927Z,3.04
2018-12-05T15:37:01.226Z,2.98
2018-12-05T15:39:29.668Z,3.00
2018-12-05T15:41:58.026Z,2.96
2018-12-05T15:44:26.348Z,2.96
2018-12-05T15:46:54.715Z,2.94
2018-12-05T15:49:23.040Z,2.94
2018-12-05T15:51:51.340Z,2.94
2018-12-05T15:54:19.653Z,2.96
2018-12-05T15:56:47.978Z,2.96
2018-12-05T15:59:16.301Z,2.94
2018-12-05T16:01:44.610Z,2.91
2018-12-05T16:04:12.948Z,2.87
2018-12-05T16:06:41.310Z,2.84
2018-12-05T16:09:09.610Z,2.82
2018-12-05T16:11:37.965Z,2.78
2018-12-05T16:14:06.268Z,2.74
2018-12-05T16:16:34.622Z,2.74
2018-12-05T16:19:02.959Z,2.74
2018-12-05T16:21:31.261Z,2.74
2018-12-05T16:23:59.578Z,2.73
2018-12-05T16:26:27.954Z,2.70
2018-12-05T16:28:56.296Z,2.68
2018-12-05T16:31:24.655Z,2.68
2018-12-05T16:33:53.050Z,2.66
2018-12-05T16:36:21.358Z,2.67
2018-12-05T16:38:49.811Z,2.67
2018-12-05T16:41:18.118Z,2.66
2018-12-05T16:43:46.425Z,2.67
2018-12-05T16:46:14.847Z,2.64
2018-12-05T16:48:43.149Z,2.58
2018-12-05T16:51:11.465Z,2.52
2018-12-05T16:53:39.852Z,2.46
2018-12-05T16:56:08.185Z,2.41
2018-12-05T16:58:36.586Z,2.37
2018-12-05T17:01:04.914Z,2.35
2018-12-05T17:03:33.221Z,2.35
2018-12-05T17:06:01.575Z,2.31
2018-12-05T17:08:29.961Z,2.23
2018-12-05T17:10:58.342Z,2.18
2018-12-05T17:13:26.634Z,2.15
2018-12-05T17:15:55.000Z,2.12
2018-12-05T17:18:23.367Z,2.08
2018-12-05T17:20:51.756Z,2.05
2018-12-05T17:23:20.219Z,1.98
2018-12-05T17:25:48.599Z,1.92
2018-12-05T17:28:16.910Z,1.88
2018-12-05T17:30:45.294Z,1.85
2018-12-05T17:33:13.601Z,1.85
2018-12-05T17:35:41.911Z,1.81
2018-12-05T17:38:10.211Z,1.74
2018-12-05T17:40:38.537Z,1.70
2018-12-05T17:43:06.839Z,1.68
2018-12-05T17:45:35.319Z,1.64
2018-12-05T17:48:03.706Z,1.62
2018-12-05T17:50:32.026Z,1.64
2018-12-05T17:53:00.326Z,1.66
2018-12-05T17:55:28.737Z,1.64
2018-12-05T17:57:57.038Z,1.62
2018-12-05T18:00:25.352Z,1.58
2018-12-05T18:02:53.652Z,1.57
2018-12-05T18:05:21.951Z,1.57
2018-12-05T18:07:50.273Z,1.59
2018-12-05T18:10:18.581Z,1.58
2018-12-05T18:12:46.909Z,1.54
2018-12-05T18:15:15.263Z,1.49
2018-12-05T18:17:43.579Z,1.46
2018-12-05T18:20:12.120Z,1.43
2018-12-05T18:22:40.492Z,1.39
2018-12-05T18:25:08.858Z,1.36
2018-12-05T18:27:37.158Z,1.39
2018-12-05T18:30:07.027Z,1.39
2018-12-05T18:32:35.356Z,1.37
2018-12-05T18:35:04.222Z,1.40
2018-12-05T18:37:32.597Z,1.40
2018-12-05T18:40:01.100Z,1.40
2018-12-05T18:42:29.404Z,1.43
2018-12-05T18:44:57.704Z,1.43
2018-12-05T18:47:26.123Z,1.45
2018-12-05T18:49:54.503Z,1.41
2018-12-05T18:52:22.823Z,1.40
2018-12-05T18:54:51.134Z,1.40
2018-12-05T18:57:19.442Z,1.38
2018-12-05T18:59:47.752Z,1.33
2018-12-05T19:02:16.074Z,1.32
2018-12-05T19:04:44.370Z,1.30
2018-12-05T19:07:12.698Z,1.29
2018-12-05T19:09:40.998Z,1.28
2018-12-05T19:12:09.319Z,1.26
2018-12-05T19:14:43.349Z,1.26
2018-12-05T19:17:11.666Z,1.24
2018-12-05T19:19:40.048Z,1.21
2018-12-05T19:22:08.456Z,1.19
2018-12-05T19:24:36.822Z,1.17
2018-12-05T19:27:05.141Z,1.12
2018-12-05T19:29:33.477Z,1.12
2018-12-05T19:32:01.871Z,1.11
2018-12-05T19:34:30.245Z,1.09
2018-12-05T19:36:58.542Z,1.10
2018-12-05T19:39:26.995Z,1.13
2018-12-05T19:41:55.290Z,1.19
2018-12-05T19:44:23.650Z,1.24
2018-12-05T19:46:52.011Z,1.24
2018-12-05T19:49:20.330Z,1.27
2018-12-05T19:51:48.678Z,1.28
2018-12-05T19:54:17.065Z,1.26
2018-12-05T19:56:45.351Z,1.22
2018-12-05T19:59:13.668Z,1.17
2018-12-05T20:01:42.107Z,1.16
2018-12-05T20:04:10.483Z,1.13
2018-12-05T20:06:38.775Z,1.13
2018-12-05T20:09:07.755Z,1.11
2018-12-05T20:11:36.126Z,1.12
2018-12-05T20:14:05.449Z,1.11
2018-12-05T20:16:33.798Z,1.13
2018-12-05T20:19:02.151Z,1.16
2018-12-05T20:21:30.449Z,1.16
2018-12-05T20:23:58.758Z,1.14
2018-12-05T20:26:27.124Z,1.11
2018-12-05T20:28:55.418Z,1.12
2018-12-05T20:31:23.793Z,1.11
2018-12-05T20:33:52.109Z,1.11
2018-12-05T20:36:20.456Z,1.10
2018-12-05T20:38:48.785Z,1.11
2018-12-05T20:41:17.102Z,1.10
2018-12-05T20:43:45.419Z,1.08
2018-12-05T20:46:13.752Z,1.06
2018-12-05T20:48:42.075Z,1.03
2018-12-05T20:51:10.501Z,1.00
2018-12-05T20:53:38.883Z,0.99
2018-12-05T20:56:07.203Z,1.00
2018-12-05T20:58:35.526Z,1.00
2018-12-05T21:01:04.016Z,1.01
2018-12-05T21:03:32.392Z,1.02
2018-12-05T21:06:00.688Z,1.04
2018-12-05T21:08:29.077Z,1.08
2018-12-05T21:10:57.391Z,1.11
2018-12-05T21:13:26.044Z,1.16
2018-12-05T21:15:54.359Z,1.19
2018-12-05T21:18:22.661Z,1.20
2018-12-05T21:20:52.488Z,1.21
2018-12-05T21:23:20.778Z,1.25
2018-12-05T21:25:49.459Z,1.26
2018-12-05T21:28:17.743Z,1.27
2018-12-05T21:30:46.126Z,1.28
2018-12-05T21:33:14.434Z,1.31
2018-12-05T21:35:42.727Z,1.33
2018-12-05T21:38:11.046Z,1.36
2018-12-05T21:40:39.360Z,1.40
2018-12-05T21:43:07.661Z,1.45
2018-12-05T21:45:35.978Z,1.47
2018-12-05T21:48:04.281Z,1.49
2018-12-05T21:50:32.633Z,1.50
2018-12-05T21:53:01.001Z,1.52
2018-12-05T21:55:29.292Z,1.54
2018-12-05T21:57:57.742Z,1.58
2018-12-05T22:00:26.195Z,1.58
2018-12-05T22:02:54.687Z,1.61
2018-12-05T22:05:22.992Z,1.62
2018-12-05T22:07:51.290Z,1.62
2018-12-05T22:10:19.600Z,1.65
2018-12-05T22:12:47.913Z,1.67
2018-12-05T22:15:16.398Z,1.68
2018-12-05T22:17:44.710Z,1.69
2018-12-05T22:20:13.013Z,1.69
2018-12-05T22:22:41.349Z,1.70
2018-12-05T22:25:09.670Z,1.70
2018-12-05T22:27:38.331Z,1.72
2018-12-05T22:30:07.911Z,1.75
2018-12-05T22:32:36.244Z,1.75
2018-12-05T22:35:05.160Z,1.77
2018-12-05T22:37:33.487Z,1.78
2018-12-05T22:40:01.954Z,1.78
2018-12-05T22:42:30.249Z,1.78
2018-12-05T22:44:58.564Z,1.78
2018-12-05T22:47:26.938Z,1.77
2018-12-05T22:49:55.279Z,1.75
2018-12-05T22:52:23.740Z,1.75
2018-12-05T22:54:52.057Z,1.72
2018-12-05T22:57:20.368Z,1.71
2018-12-05T22:59:48.685Z,1.71
2018-12-05T23:02:17.795Z,1.72
2018-12-05T23:04:46.132Z,1.71
2018-12-05T23:07:14.475Z,1.72
2018-12-05T23:09:42.882Z,1.74
2018-12-05T23:12:11.219Z,1.73
2018-12-05T23:14:39.542Z,1.75
2018-12-05T23:17:07.962Z,1.74
2018-12-05T23:19:36.307Z,1.75
2018-12-05T23:22:04.682Z,1.75
2018-12-05T23:24:32.987Z,1.75
2018-12-05T23:27:01.310Z,1.75
2018-12-05T23:29:29.747Z,1.77
2018-12-05T23:31:58.055Z,1.78
2018-12-05T23:34:26.347Z,1.81
2018-12-05T23:36:54.684Z,1.82
2018-12-05T23:39:22.989Z,1.85
2018-12-05T23:41:51.354Z,1.85
2018-12-05T23:44:19.694Z,1.86
2018-12-05T23:46:48.052Z,1.87
2018-12-05T23:49:16.453Z,1.86
2018-12-05T23:51:44.755Z,1.86
2018-12-05T23:54:13.171Z,1.87
2018-12-05T23:56:41.475Z,1.89
2018-12-05T23:59:09.931Z,1.89
